Time;durP1;ratioP1;P1;durP2;ratioP2;P2;SDS_P1;SDS_P2;PMS_P1;PMS_P2;Temp;Humidity;BMP_temperature;BMP_pressure;BME280_temperature;BME280_humidity;BME280_pressure;Samples;Min_cycle;Max_cycle;Signal;HPM_P1;HPM_P2
2022/08/07 00:00:47;;;;;;;3.83;2.42;;;17.90;99.90;;;;;;5222970;28;20031;-60
2022/08/07 00:03:23;;;;;;;3.15;1.70;;;17.90;99.90;;;;;;5222911;28;20029;-59
2022/08/07 00:05:56;;;;;;;1.95;1.67;;;17.90;99.90;;;;;;5228794;28;20048;-60
2022/08/07 00:08:30;;;;;;;3.10;1.95;;;17.90;99.90;;;;;;5221773;28;20036;-59
2022/08/07 00:11:06;;;;;;;2.33;1.77;;;17.90;99.90;;;;;;5205237;28;20033;-59
2022/08/07 00:13:37;;;;;;;2.10;1.90;;;17.90;99.90;;;;;;5220365;28;20213;-59
2022/08/07 00:16:14;;;;;;;2.03;1.85;;;17.80;99.90;;;;;;5239189;28;20332;-59
2022/08/07 00:18:45;;;;;;;2.22;1.80;;;17.80;99.90;;;;;;5219278;28;20029;-61
2022/08/07 00:21:20;;;;;;;1.77;1.60;;;17.80;99.90;;;;;;5238912;28;20190;-59
2022/08/07 00:23:51;;;;;;;1.95;1.75;;;17.70;99.90;;;;;;5237972;28;20031;-59
2022/08/07 00:26:25;;;;;;;1.95;1.85;;;17.80;99.90;;;;;;5237162;28;20053;-59
2022/08/07 00:28:56;;;;;;;1.77;1.67;;;17.80;99.90;;;;;;5219898;28;20032;-59
2022/08/07 00:31:33;;;;;;;2.10;1.90;;;17.80;99.90;;;;;;5238760;28;20254;-59
2022/08/07 00:34:04;;;;;;;1.80;1.70;;;17.80;99.90;;;;;;5206452;28;20028;-59
2022/08/07 00:36:39;;;;;;;1.85;1.75;;;17.80;99.90;;;;;;5224796;28;20222;-60
2022/08/07 00:39:13;;;;;;;3.60;1.83;;;17.70;99.90;;;;;;5223543;28;20045;-59
2022/08/07 00:41:56;;;;;;;1.75;1.63;;;17.70;99.90;;;;;;5238342;28;20025;-60
2022/08/07 00:44:30;;;;;;;2.75;1.80;;;17.80;99.90;;;;;;5219342;28;20035;-60
2022/08/07 00:47:05;;;;;;;1.90;1.80;;;17.70;99.90;;;;;;5222250;28;20210;-60
2022/08/07 00:49:39;;;;;;;1.58;1.48;;;17.70;99.90;;;;;;5204069;28;20103;-60
2022/08/07 00:52:10;;;;;;;1.50;1.40;;;17.70;99.90;;;;;;5220854;28;20039;-60
2022/08/07 00:54:41;;;;;;;1.77;1.67;;;17.70;99.90;;;;;;5222189;28;20333;-60
2022/08/07 00:57:13;;;;;;;2.03;1.92;;;17.70;99.90;;;;;;5220497;28;20051;-60
2022/08/07 00:59:44;;;;;;;3.60;1.55;;;17.70;99.90;;;;;;5220393;28;20059;-60
2022/08/07 01:02:16;;;;;;;1.73;1.63;;;17.70;99.90;;;;;;5220283;28;20025;-60
2022/08/07 01:04:51;;;;;;;2.08;1.88;;;17.70;99.90;;;;;;5225647;28;20047;-60
2022/08/07 01:07:28;;;;;;;1.92;1.58;;;17.70;99.90;;;;;;5236678;28;20029;-60
2022/08/07 01:10:02;;;;;;;1.88;1.73;;;17.70;99.90;;;;;;5237845;28;20031;-59
2022/08/07 01:12:34;;;;;;;1.85;1.75;;;17.60;99.90;;;;;;5218378;28;20314;-59
2022/08/07 01:15:11;;;;;;;2.00;1.63;;;17.60;99.90;;;;;;5237794;28;20201;-59
2022/08/07 01:17:45;;;;;;;2.10;1.85;;;17.60;99.90;;;;;;5219969;28;20191;-59
2022/08/07 01:20:20;;;;;;;2.40;2.20;;;17.60;99.90;;;;;;5221105;28;20025;-59
2022/08/07 01:22:52;;;;;;;2.80;1.83;;;17.60;99.90;;;;;;5220551;28;20028;-59
2022/08/07 01:25:27;;;;;;;1.95;1.52;;;17.50;99.90;;;;;;5238259;28;20032;-59
2022/08/07 01:27:59;;;;;;;1.80;1.70;;;17.50;99.90;;;;;;5201995;28;20221;-59
2022/08/07 01:30:31;;;;;;;1.80;1.70;;;17.50;99.90;;;;;;5219157;28;20033;-59
2022/08/07 01:33:03;;;;;;;2.28;2.08;;;17.50;99.90;;;;;;5237039;28;20031;-60
2022/08/07 01:35:37;;;;;;;2.30;1.40;;;17.50;99.90;;;;;;5202305;28;20221;-59
2022/08/07 01:38:15;;;;;;;2.05;1.83;;;17.50;99.90;;;;;;5235152;28;20024;-59
2022/08/07 01:40:50;;;;;;;2.20;2.00;;;17.50;99.90;;;;;;5219109;28;20051;-60
2022/08/07 01:43:22;;;;;;;3.40;1.60;;;17.50;99.90;;;;;;5223167;28;20032;-59
2022/08/07 01:45:55;;;;;;;1.80;1.70;;;17.50;99.90;;;;;;5257317;28;20033;-59
2022/08/07 01:48:27;;;;;;;1.40;1.30;;;17.50;99.90;;;;;;5240902;28;20031;-59
2022/08/07 01:55:00;;;;;;;1.67;1.58;;;17.50;99.90;;;;;;5259542;28;20026;-59
2022/08/07 01:57:41;;;;;;;2.00;1.75;;;17.40;99.90;;;;;;5220013;28;20037;-60
2022/08/07 02:00:13;;;;;;;1.73;1.63;;;17.40;99.90;;;;;;5223583;28;20041;-60
2022/08/07 02:02:58;;;;;;;1.77;1.67;;;17.40;99.90;;;;;;5222476;28;20036;-60
2022/08/07 02:05:37;;;;;;;1.55;1.40;;;17.40;99.90;;;;;;5224913;28;20328;-60
2022/08/07 02:08:21;;;;;;;1.92;1.70;;;17.40;99.90;;;;;;5245170;28;20311;-59
2022/08/07 02:10:58;;;;;;;1.80;1.67;;;17.50;99.90;;;;;;5245241;28;20024;-60
2022/08/07 02:13:37;;;;;;;1.77;1.67;;;17.40;99.90;;;;;;5225507;28;20349;-61
2022/08/07 02:16:12;;;;;;;1.55;1.45;;;17.40;99.90;;;;;;5209577;28;20037;-59
2022/08/07 02:18:46;;;;;;;1.80;1.70;;;17.40;99.90;;;;;;5223587;28;20035;-59
2022/08/07 02:21:25;;;;;;;1.77;1.52;;;17.30;99.90;;;;;;5224701;28;20025;-60
2022/08/07 02:24:01;;;;;;;1.60;1.45;;;17.30;99.90;;;;;;5224276;28;20035;-59
2022/08/07 02:26:42;;;;;;;1.75;1.65;;;17.30;99.90;;;;;;5223331;28;20043;-59
2022/08/07 02:29:18;;;;;;;1.73;1.63;;;17.30;99.90;;;;;;5224790;28;20043;-61
2022/08/07 02:31:51;;;;;;;1.63;1.42;;;17.30;99.90;;;;;;5224334;28;20033;-60
2022/08/07 02:34:26;;;;;;;1.67;1.40;;;17.30;99.90;;;;;;5221648;28;20036;-60
2022/08/07 02:37:00;;;;;;;1.40;1.30;;;17.30;99.90;;;;;;5206996;28;20222;-60
2022/08/07 02:39:34;;;;;;;1.52;1.42;;;17.30;99.90;;;;;;5206918;28;20298;-60
2022/08/07 02:42:11;;;;;;;2.60;1.70;;;17.30;99.90;;;;;;5224054;28;20032;-60
2022/08/07 02:44:49;;;;;;;1.45;1.35;;;17.30;99.90;;;;;;5224959;28;20027;-61
2022/08/07 02:47:21;;;;;;;1.45;1.35;;;17.30;99.90;;;;;;5241113;28;20025;-61
2022/08/07 02:49:55;;;;;;;2.15;1.50;;;17.30;99.90;;;;;;5222996;28;20320;-59
2022/08/07 02:52:38;;;;;;;4.97;1.70;;;17.30;99.90;;;;;;5206101;28;20028;-59
2022/08/07 02:55:22;;;;;;;1.48;1.30;;;17.30;99.90;;;;;;5219305;28;20029;-59
2022/08/07 02:57:58;;;;;;;1.88;1.73;;;17.30;99.90;;;;;;5218345;28;20033;-59
2022/08/07 03:00:39;;;;;;;1.50;1.40;;;17.40;99.90;;;;;;5240818;28;20027;-59
2022/08/07 03:03:17;;;;;;;2.08;1.88;;;17.30;99.90;;;;;;5239431;28;20037;-60
2022/08/07 03:05:54;;;;;;;1.70;1.60;;;17.30;99.90;;;;;;5231303;28;20059;-59
2022/08/07 03:08:28;;;;;;;1.98;1.75;;;17.30;99.90;;;;;;5239802;28;20084;-61
2022/08/07 03:11:01;;;;;;;1.67;1.58;;;17.30;99.90;;;;;;5241219;28;20035;-60
2022/08/07 03:13:32;;;;;;;1.40;1.30;;;17.20;99.90;;;;;;5222221;28;20033;-59
2022/08/07 03:16:04;;;;;;;1.58;1.40;;;17.20;99.90;;;;;;5190816;28;20043;-59
2022/08/07 03:18:35;;;;;;;1.83;1.73;;;17.20;99.90;;;;;;5240903;28;20216;-60
2022/08/07 03:21:11;;;;;;;1.92;1.83;;;17.20;99.90;;;;;;5205244;28;20045;-59
2022/08/07 03:23:44;;;;;;;1.42;1.27;;;17.20;99.90;;;;;;5240638;28;20021;-62
2022/08/07 03:26:32;;;;;;;1.77;1.65;;;17.20;99.90;;;;;;5206548;28;20029;-59
2022/08/07 03:29:06;;;;;;;1.88;1.40;;;17.20;99.90;;;;;;5221885;28;20033;-59
2022/08/07 03:31:39;;;;;;;1.50;1.40;;;17.20;99.90;;;;;;5222142;28;20021;-59
2022/08/07 03:34:12;;;;;;;1.50;1.40;;;17.20;99.90;;;;;;5240739;28;20302;-59
2022/08/07 03:36:44;;;;;;;1.48;1.38;;;17.20;99.90;;;;;;5240475;28;20029;-60
2022/08/07 03:39:19;;;;;;;1.52;1.35;;;17.20;99.90;;;;;;5238430;28;20035;-59
2022/08/07 03:41:51;;;;;;;2.10;1.45;;;17.30;99.90;;;;;;5238872;28;20082;-59
2022/08/07 03:44:22;;;;;;;2.10;1.75;;;17.20;99.90;;;;;;5222102;28;20032;-59
2022/08/07 03:46:56;;;;;;;4.47;1.35;;;17.30;99.90;;;;;;5221289;28;20029;-59
2022/08/07 03:49:28;;;;;;;1.52;1.40;;;17.20;99.90;;;;;;5238614;28;20035;-59
2022/08/07 03:52:06;;;;;;;1.70;1.55;;;17.30;99.90;;;;;;5222784;28;20028;-58
2022/08/07 03:54:37;;;;;;;1.50;1.40;;;17.20;99.90;;;;;;5222984;28;20025;-61
2022/08/07 03:57:14;;;;;;;1.58;1.48;;;17.20;99.90;;;;;;5220875;28;20047;-59
2022/08/07 03:59:51;;;;;;;1.25;1.15;;;17.30;99.90;;;;;;5222649;28;20020;-60
2022/08/07 04:02:23;;;;;;;2.13;1.48;;;17.20;99.90;;;;;;5240338;28;20025;-59
2022/08/07 04:04:57;;;;;;;3.42;1.40;;;17.20;99.90;;;;;;5226556;28;20044;-59
2022/08/07 04:07:31;;;;;;;1.75;1.40;;;17.20;99.90;;;;;;5238579;28;20023;-59
2022/08/07 04:10:08;;;;;;;1.75;1.65;;;17.20;99.90;;;;;;5221176;28;20056;-59
2022/08/07 04:12:40;;;;;;;1.60;1.50;;;17.20;99.90;;;;;;5204151;28;20055;-59
2022/08/07 04:15:12;;;;;;;1.35;1.25;;;17.20;99.90;;;;;;5239842;28;20023;-61
2022/08/07 04:17:47;;;;;;;2.25;1.90;;;17.20;99.90;;;;;;5237298;28;20051;-59
2022/08/07 04:20:19;;;;;;;1.83;1.73;;;17.10;99.90;;;;;;5240562;28;20025;-59
2022/08/07 04:22:53;;;;;;;1.63;1.52;;;17.10;99.90;;;;;;5221689;28;20232;-61
2022/08/07 04:25:31;;;;;;;2.10;1.40;;;17.00;99.90;;;;;;5224842;28;20039;-61
2022/08/07 04:28:05;;;;;;;1.60;1.42;;;16.90;99.90;;;;;;5222300;28;20028;-61
2022/08/07 04:30:37;;;;;;;2.58;1.70;;;16.90;99.90;;;;;;5239002;28;20031;-59
2022/08/07 04:33:11;;;;;;;1.67;1.58;;;16.90;99.90;;;;;;5240000;28;20020;-61
2022/08/07 04:35:46;;;;;;;3.40;1.55;;;16.90;99.90;;;;;;5222586;28;20237;-59
2022/08/07 04:38:18;;;;;;;2.22;1.50;;;16.90;99.90;;;;;;5235554;28;20028;-59
2022/08/07 04:40:49;;;;;;;1.70;1.60;;;16.90;99.90;;;;;;5237533;28;20035;-59
2022/08/07 04:43:30;;;;;;;1.85;1.60;;;17.00;99.90;;;;;;5237140;28;20017;-59
2022/08/07 04:46:13;;;;;;;1.70;1.60;;;17.00;99.90;;;;;;5238624;28;20306;-59
2022/08/07 04:49:10;;;;;;;1.45;1.35;;;17.00;99.90;;;;;;5219576;28;20047;-61
2022/08/07 04:52:21;;;;;;;1.52;1.42;;;17.00;99.90;;;;;;5238980;28;20021;-61
2022/08/07 04:55:04;;;;;;;1.40;1.30;;;17.00;99.90;;;;;;5204688;28;20027;-61
2022/08/07 04:57:40;;;;;;;1.60;1.50;;;17.00;99.90;;;;;;5238378;28;20222;-59
2022/08/07 05:00:20;;;;;;;1.60;1.50;;;17.00;99.90;;;;;;5203538;28;20036;-61
2022/08/07 05:03:21;;;;;;;1.52;1.42;;;17.10;99.90;;;;;;5222032;28;20051;-59
2022/08/07 05:06:09;;;;;;;1.58;1.48;;;17.00;99.90;;;;;;5227173;28;20056;-60
2022/08/07 05:09:03;;;;;;;1.30;1.20;;;17.10;99.90;;;;;;5237973;28;20047;-62
2022/08/07 05:11:47;;;;;;;1.70;1.60;;;17.10;99.90;;;;;;5221835;28;20021;-60
2022/08/07 05:14:46;;;;;;;1.60;1.40;;;17.10;99.90;;;;;;5236412;28;20029;-59
2022/08/07 05:17:23;;;;;;;1.92;1.40;;;17.10;99.90;;;;;;5234537;28;20036;-59
2022/08/07 05:19:57;;;;;;;1.95;1.75;;;17.20;99.90;;;;;;5238950;28;20029;-60
2022/08/07 05:22:28;;;;;;;;;;;17.20;99.90;;;;;;5237952;28;20234;-59
2022/08/07 05:25:00;;;;;;;1.40;1.30;;;17.20;99.90;;;;;;5238768;28;19922;-59
2022/08/07 05:27:32;;;;;;;1.63;1.52;;;17.30;99.90;;;;;;5236305;28;20054;-60
2022/08/07 05:30:06;;;;;;;1.60;1.50;;;17.30;99.90;;;;;;5220737;28;20024;-60
2022/08/07 05:32:38;;;;;;;2.35;1.73;;;17.30;99.90;;;;;;5222807;28;20024;-60
2022/08/07 05:35:11;;;;;;;1.40;1.30;;;17.30;99.90;;;;;;5237354;28;20043;-60
2022/08/07 05:37:43;;;;;;;2.33;1.40;;;17.30;99.90;;;;;;5238484;28;20033;-60
2022/08/07 05:40:17;;;;;;;2.38;1.60;;;17.30;99.90;;;;;;5220289;28;20033;-60
2022/08/07 05:42:49;;;;;;;3.25;1.58;;;17.30;99.90;;;;;;5218512;28;20047;-59
2022/08/07 05:45:33;;;;;;;1.58;1.48;;;17.30;99.90;;;;;;5218674;28;20025;-60
2022/08/07 05:48:07;;;;;;;1.65;1.55;;;17.40;99.90;;;;;;5237024;28;20028;-60
2022/08/07 05:50:43;;;;;;;2.38;1.80;;;17.50;99.90;;;;;;5187935;28;20024;-60
2022/08/07 05:53:17;;;;;;;2.75;1.77;;;17.50;99.90;;;;;;5203038;28;20051;-59
2022/08/07 05:55:49;;;;;;;1.67;1.25;;;17.50;99.90;;;;;;5236007;28;20172;-60
2022/08/07 05:58:23;;;;;;;2.05;1.50;;;17.60;99.90;;;;;;5218534;28;20213;-60
2022/08/07 06:00:56;;;;;;;1.40;1.30;;;17.70;99.90;;;;;;5219663;28;20036;-59
2022/08/07 06:03:30;;;;;;;5.70;1.48;;;17.70;99.90;;;;;;5219227;28;20029;-59
2022/08/07 06:06:04;;;;;;;1.80;1.70;;;17.80;99.90;;;;;;5185210;28;20053;-60
2022/08/07 06:08:36;;;;;;;3.75;1.60;;;18.00;99.90;;;;;;5235679;28;20029;-60
2022/08/07 06:11:09;;;;;;;1.52;1.25;;;17.90;99.90;;;;;;5218712;28;20031;-60
2022/08/07 06:13:46;;;;;;;2.13;1.40;;;18.00;99.90;;;;;;5202697;28;20352;-59
2022/08/07 06:16:21;;;;;;;1.48;1.38;;;18.10;99.90;;;;;;5234949;28;20047;-59
2022/08/07 06:18:53;;;;;;;2.72;1.42;;;18.10;99.90;;;;;;5236153;28;20055;-60
2022/08/07 06:21:25;;;;;;;1.45;1.20;;;18.30;99.90;;;;;;5237502;28;20024;-60
2022/08/07 06:23:57;;;;;;;1.42;1.33;;;18.60;99.90;;;;;;5220519;28;20021;-60
2022/08/07 06:26:28;;;;;;;1.40;1.30;;;18.70;99.90;;;;;;5217645;28;20318;-60
2022/08/07 06:29:02;;;;;;;1.77;1.27;;;18.60;99.90;;;;;;5217056;28;20029;-60
2022/08/07 06:31:34;;;;;;;1.67;1.58;;;18.60;99.90;;;;;;5217222;28;20013;-61
2022/08/07 06:34:05;;;;;;;1.65;1.55;;;18.80;99.90;;;;;;5219124;28;20037;-61
2022/08/07 06:36:40;;;;;;;1.25;1.15;;;19.00;99.90;;;;;;5236842;28;20039;-62
2022/08/07 06:39:16;;;;;;;3.47;1.23;;;19.20;99.90;;;;;;5236901;28;20031;-62
2022/08/07 06:42:18;;;;;;;1.40;1.30;;;19.70;99.90;;;;;;5257173;28;20025;-61
2022/08/07 06:44:53;;;;;;;1.98;1.48;;;20.00;99.90;;;;;;5249437;28;20040;-59
2022/08/07 06:47:25;;;;;;;1.30;1.20;;;19.90;99.90;;;;;;5223232;28;20033;-59
2022/08/07 06:49:56;;;;;;;1.50;1.40;;;20.00;99.90;;;;;;5240994;28;20029;-59
2022/08/07 06:52:36;;;;;;;1.92;1.20;;;19.80;99.90;;;;;;5224847;28;20039;-59
2022/08/07 06:55:21;;;;;;;1.40;1.27;;;19.70;99.90;;;;;;5242046;28;20315;-60
2022/08/07 06:57:58;;;;;;;2.20;1.30;;;19.60;99.90;;;;;;5244743;28;20034;-60
2022/08/07 07:00:34;;;;;;;1.77;1.42;;;19.40;99.90;;;;;;5227021;28;20032;-60
2022/08/07 07:03:12;;;;;;;2.25;1.45;;;19.50;99.90;;;;;;5244941;28;20038;-59
2022/08/07 07:05:47;;;;;;;1.20;1.10;;;19.20;99.90;;;;;;5248755;28;20045;-59
2022/08/07 07:08:24;;;;;;;1.20;1.10;;;19.10;99.90;;;;;;5259838;28;20031;-59
2022/08/07 07:11:01;;;;;;;1.30;1.20;;;19.30;99.90;;;;;;5261364;28;20043;-60
2022/08/07 07:13:48;;;;;;;2.22;1.20;;;19.40;99.90;;;;;;5224429;28;20041;-59
2022/08/07 07:16:22;;;;;;;2.50;1.08;;;19.40;99.90;;;;;;5221315;28;20043;-60
2022/08/07 07:19:02;;;;;;;1.50;1.40;;;19.40;99.90;;;;;;5223300;28;20039;-60
2022/08/07 07:21:40;;;;;;;1.98;1.40;;;19.10;99.90;;;;;;5205351;28;20035;-60
2022/08/07 07:24:16;;;;;;;1.95;1.20;;;19.10;99.90;;;;;;5239852;28;20024;-60
2022/08/07 07:26:52;;;;;;;3.65;1.50;;;19.10;99.90;;;;;;5238717;28;20031;-60
2022/08/07 07:29:30;;;;;;;1.30;1.20;;;19.20;99.90;;;;;;5220815;28;20016;-60
2022/08/07 07:32:03;;;;;;;1.70;1.60;;;19.10;99.90;;;;;;5216828;28;20039;-60
2022/08/07 07:34:38;;;;;;;1.97;1.27;;;19.20;99.90;;;;;;5213148;28;20038;-59
2022/08/07 07:37:10;;;;;;;;;;;19.30;99.90;;;;;;5202425;28;20289;-59
2022/08/07 07:39:44;;;;;;;2.17;1.63;;;19.30;99.90;;;;;;5202692;28;20204;-59
2022/08/07 07:42:16;;;;;;;1.70;1.13;;;19.10;99.90;;;;;;5218477;28;20025;-59
2022/08/07 07:44:51;;;;;;;6.40;1.50;;;19.30;99.90;;;;;;5200796;28;20460;-59
2022/08/07 07:47:29;;;;;;;1.48;1.38;;;19.20;99.90;;;;;;5201650;28;20022;-60
2022/08/07 07:50:01;;;;;;;1.30;1.20;;;19.40;99.90;;;;;;5217276;28;20028;-59
2022/08/07 07:52:36;;;;;;;2.70;1.40;;;19.70;99.90;;;;;;5219562;28;20022;-59
2022/08/07 07:55:08;;;;;;;2.20;1.60;;;19.50;99.90;;;;;;5181933;28;20029;-59
2022/08/07 07:57:42;;;;;;;4.35;1.60;;;19.60;99.90;;;;;;5201132;28;20048;-59
2022/08/07 08:00:14;;;;;;;1.90;1.40;;;19.40;99.90;;;;;;5218607;28;20013;-61
2022/08/07 08:02:48;;;;;;;1.40;1.30;;;19.60;99.90;;;;;;5236743;28;20020;-59
2022/08/07 08:05:22;;;;;;;2.33;1.30;;;19.70;99.90;;;;;;5206099;28;20041;-59
2022/08/07 08:07:55;;;;;;;1.90;1.70;;;19.70;99.90;;;;;;5214424;28;20029;-59
2022/08/07 08:10:30;;;;;;;1.80;1.70;;;19.70;99.90;;;;;;5236855;28;20214;-61
2022/08/07 08:13:01;;;;;;;;;;;19.80;99.90;;;;;;5204232;28;20043;-59
2022/08/07 08:15:35;;;;;;;2.13;1.58;;;19.70;99.90;;;;;;5221758;28;20093;-58
2022/08/07 08:18:14;;;;;;;2.00;1.77;;;20.00;99.90;;;;;;5238496;28;20028;-60
2022/08/07 08:20:47;;;;;;;1.50;1.13;;;20.20;99.90;;;;;;5220661;28;20306;-59
2022/08/07 08:27:08;;;;;;;1.80;1.55;;;20.50;99.90;;;;;;5240205;28;20017;-60
2022/08/07 08:29:56;;;;;;;1.88;1.48;;;20.20;99.90;;;;;;5237566;28;20019;-59
2022/08/07 08:32:33;;;;;;;1.50;1.40;;;20.00;99.90;;;;;;5220877;28;20028;-59
2022/08/07 08:35:10;;;;;;;2.10;1.30;;;19.90;99.90;;;;;;5220529;28;20033;-59
2022/08/07 08:37:45;;;;;;;1.63;1.50;;;19.90;99.90;;;;;;5206584;28;20036;-59
2022/08/07 08:40:31;;;;;;;1.95;1.60;;;20.00;99.90;;;;;;5236659;28;20145;-59
2022/08/07 08:43:27;;;;;;;1.42;1.33;;;19.70;99.90;;;;;;5236018;28;20027;-59
2022/08/07 08:46:10;;;;;;;1.30;1.20;;;19.90;99.90;;;;;;5236546;28;20033;-59
2022/08/07 08:48:52;;;;;;;1.55;1.30;;;19.80;99.90;;;;;;5220488;28;20037;-59
2022/08/07 08:51:31;;;;;;;1.15;1.13;;;19.90;99.90;;;;;;5220807;28;20043;-60
2022/08/07 08:54:14;;;;;;;1.30;1.20;;;19.90;99.90;;;;;;5248448;28;20359;-59
2022/08/07 08:56:54;;;;;;;3.63;1.60;;;20.00;99.90;;;;;;5239206;28;20306;-59
2022/08/07 08:59:49;;;;;;;1.88;1.45;;;20.00;99.90;;;;;;5259653;28;20294;-60
2022/08/07 09:02:40;;;;;;;;;;;20.10;99.90;;;;;;5259322;28;20324;-60
2022/08/07 09:05:42;;;;;;;2.30;1.70;;;20.20;99.90;;;;;;5229333;28;19914;-59
2022/08/07 09:08:40;;;;;;;1.48;1.35;;;20.30;99.90;;;;;;5257715;28;20024;-60
2022/08/07 09:11:30;;;;;;;1.60;1.50;;;20.40;99.90;;;;;;5237455;28;20187;-60
2022/08/07 09:14:38;;;;;;;1.63;1.52;;;20.60;99.90;;;;;;5202273;28;20047;-59
2022/08/07 09:17:53;;;;;;;1.20;1.10;;;20.90;99.90;;;;;;5237329;28;20039;-60
2022/08/07 09:21:09;;;;;;;1.67;1.20;;;21.30;99.90;;;;;;5204047;28;20029;-60
2022/08/07 09:24:16;;;;;;;1.65;1.55;;;21.80;99.90;;;;;;5205333;28;20262;-60
2022/08/07 09:27:22;;;;;;;1.27;1.17;;;21.60;99.90;;;;;;5219719;28;20303;-59
2022/08/07 09:30:08;;;;;;;1.55;1.38;;;21.60;99.90;;;;;;5217150;28;20037;-59
2022/08/07 09:32:48;;;;;;;1.45;1.10;;;21.70;99.90;;;;;;5219085;28;20294;-61
2022/08/07 09:35:24;;;;;;;3.28;1.30;;;21.90;99.90;;;;;;5218232;28;20219;-59
2022/08/07 09:38:21;;;;;;;1.48;1.38;;;21.90;99.90;;;;;;5235721;28;20332;-60
2022/08/07 09:41:15;;;;;;;1.27;1.08;;;21.60;99.90;;;;;;5237177;28;20202;-60
2022/08/07 09:44:09;;;;;;;1.60;1.00;;;21.80;99.90;;;;;;5201768;28;20029;-60
2022/08/07 09:47:08;;;;;;;2.08;1.30;;;21.80;99.90;;;;;;5236049;28;20025;-62
2022/08/07 09:49:48;;;;;;;1.65;1.30;;;22.10;99.90;;;;;;5216810;28;20025;-60
2022/08/07 09:52:31;;;;;;;1.10;1.05;;;21.90;99.90;;;;;;5216442;28;20039;-60
2022/08/07 09:55:09;;;;;;;1.35;1.20;;;22.00;99.90;;;;;;5230139;28;20027;-60
2022/08/07 09:58:02;;;;;;;1.58;1.48;;;21.90;99.90;;;;;;5236638;28;20031;-60
2022/08/07 10:01:00;;;;;;;1.30;1.20;;;21.70;99.90;;;;;;5238989;28;20320;-61
2022/08/07 10:04:01;;;;;;;3.08;1.20;;;21.80;99.90;;;;;;5237381;28;20017;-60
2022/08/07 10:07:23;;;;;;;2.47;1.67;;;21.70;99.90;;;;;;5230660;28;20041;-59
2022/08/07 10:10:32;;;;;;;1.65;1.38;;;22.30;99.90;;;;;;5235954;28;20027;-59
2022/08/07 10:13:16;;;;;;;4.85;1.40;;;22.30;99.90;;;;;;5220185;28;20041;-60
2022/08/07 10:15:59;;;;;;;;;;;22.70;99.90;;;;;;5237278;28;20027;-60
2022/08/07 10:18:42;;;;;;;2.00;1.58;;;22.40;99.90;;;;;;5237611;28;19915;-60
2022/08/07 10:21:25;;;;;;;1.52;1.42;;;22.40;99.90;;;;;;5219768;28;20043;-59
2022/08/07 10:24:18;;;;;;;3.00;1.40;;;22.70;99.90;;;;;;5219442;28;20032;-60
2022/08/07 10:27:10;;;;;;;3.15;1.30;;;22.90;99.90;;;;;;5237258;28;20025;-60
2022/08/07 10:30:15;;;;;;;1.70;1.30;;;22.90;99.90;;;;;;5241151;28;20278;-59
2022/08/07 10:33:08;;;;;;;3.47;1.50;;;23.70;99.90;;;;;;5207977;28;20044;-59
2022/08/07 10:35:51;;;;;;;3.53;1.33;;;23.20;99.90;;;;;;5203191;28;20213;-60
2022/08/07 10:38:37;;;;;;;1.58;1.40;;;24.70;99.90;;;;;;5199738;28;20249;-61
2022/08/07 10:41:26;;;;;;;1.40;1.10;;;24.90;99.90;;;;;;5222279;28;20029;-61
2022/08/07 10:44:19;;;;;;;1.63;1.30;;;24.70;99.90;;;;;;5221184;28;20021;-60
2022/08/07 10:47:05;;;;;;;2.67;1.30;;;24.40;99.90;;;;;;5220069;28;20215;-60
2022/08/07 10:49:54;;;;;;;1.50;1.20;;;24.40;99.90;;;;;;5237637;28;20021;-60
2022/08/07 10:52:59;;;;;;;1.77;1.20;;;25.00;99.90;;;;;;5185298;28;20036;-61
2022/08/07 10:55:43;;;;;;;1.15;0.95;;;25.30;99.90;;;;;;5245988;28;20039;-61
2022/08/07 10:58:34;;;;;;;1.20;1.10;;;25.70;99.90;;;;;;5216150;28;20037;-61
2022/08/07 11:01:18;;;;;;;3.58;1.33;;;26.80;99.90;;;;;;5219250;28;20233;-61
2022/08/07 11:04:00;;;;;;;1.23;1.13;;;25.90;99.90;;;;;;5246944;28;20024;-61
2022/08/07 11:06:47;;;;;;;1.15;1.05;;;25.70;99.90;;;;;;5234767;28;20051;-61
2022/08/07 11:09:25;;;;;;;1.08;0.93;;;24.80;99.90;;;;;;5226874;28;20209;-60
2022/08/07 11:12:16;;;;;;;1.50;1.10;;;24.70;99.90;;;;;;5242413;28;20032;-59
2022/08/07 11:14:54;;;;;;;1.88;0.95;;;23.90;99.90;;;;;;5258256;28;20024;-60
2022/08/07 11:17:35;;;;;;;1.17;1.08;;;23.70;99.90;;;;;;5243262;28;20046;-59
2022/08/07 11:20:23;;;;;;;2.17;1.20;;;24.10;99.90;;;;;;5242611;28;20030;-61
2022/08/07 11:23:03;;;;;;;1.33;1.23;;;24.00;99.90;;;;;;5259876;28;20032;-59
2022/08/07 11:25:51;;;;;;;2.35;1.73;;;23.80;99.90;;;;;;5243804;28;20033;-59
2022/08/07 11:28:50;;;;;;;1.10;1.05;;;23.70;99.90;;;;;;5233103;28;20039;-59
2022/08/07 11:31:24;;;;;;;4.25;1.20;;;23.60;99.90;;;;;;5189831;28;20030;-60
2022/08/07 11:34:17;;;;;;;1.20;1.08;;;24.10;99.90;;;;;;5201115;28;20021;-59
2022/08/07 11:37:07;;;;;;;1.13;1.00;;;23.70;99.90;;;;;;5184172;28;20029;-60
2022/08/07 11:39:57;;;;;;;1.20;1.10;;;24.10;99.90;;;;;;5200455;28;20021;-61
2022/08/07 11:43:02;;;;;;;1.17;1.08;;;24.10;99.90;;;;;;5220295;28;20216;-59
2022/08/07 11:49:04;;;;;;;1.15;1.08;;;23.80;99.90;;;;;;5225551;28;20058;-60
2022/08/07 11:52:15;;;;;;;1.42;1.33;;;23.80;99.90;;;;;;5233614;28;20013;-59
2022/08/07 11:55:25;;;;;;;2.40;1.05;;;23.70;99.90;;;;;;5226812;28;20032;-59
2022/08/07 11:58:34;;;;;;;1.40;1.30;;;23.70;99.90;;;;;;5210590;28;20041;-60
2022/08/07 12:01:26;;;;;;;1.95;1.40;;;23.80;99.90;;;;;;5199416;28;20029;-59
2022/08/07 12:04:25;;;;;;;1.48;1.38;;;23.90;99.90;;;;;;5233298;28;20039;-61
2022/08/07 12:07:00;;;;;;;1.60;1.25;;;23.90;99.90;;;;;;5188206;28;20041;-60
2022/08/07 12:09:44;;;;;;;1.30;1.20;;;23.90;99.90;;;;;;5233084;28;20020;-61
2022/08/07 12:12:27;;;;;;;2.45;1.23;;;24.20;99.90;;;;;;5238587;28;20041;-60
2022/08/07 12:15:51;;;;;;;1.20;1.10;;;24.00;99.90;;;;;;5236811;28;20021;-59
2022/08/07 12:18:46;;;;;;;1.30;1.20;;;24.00;99.90;;;;;;5176806;28;20321;-61
2022/08/07 12:21:27;;;;;;;1.25;1.15;;;24.20;99.90;;;;;;5181319;28;20090;-59
2022/08/07 12:24:07;;;;;;;1.88;1.23;;;24.30;99.90;;;;;;5196924;28;20125;-59
2022/08/07 12:27:05;;;;;;;2.45;1.52;;;24.10;99.90;;;;;;5195620;28;20032;-61
2022/08/07 12:29:42;;;;;;;1.23;1.13;;;24.00;99.90;;;;;;5176752;28;20037;-59
2022/08/07 12:32:38;;;;;;;2.72;1.10;;;24.20;99.90;;;;;;5195822;28;20347;-59
2022/08/07 12:35:14;;;;;;;1.15;1.05;;;24.50;99.90;;;;;;5195146;28;20044;-60
2022/08/07 12:37:49;;;;;;;2.05;1.10;;;24.70;99.90;;;;;;5195215;28;20052;-60
2022/08/07 12:40:33;;;;;;;1.30;1.20;;;24.80;99.90;;;;;;5196087;28;20034;-60
2022/08/07 12:43:06;;;;;;;;;;;24.90;99.90;;;;;;5199151;28;20033;-59
2022/08/07 12:46:11;;;;;;;1.10;1.00;;;24.70;99.90;;;;;;5200208;28;19992;-59
2022/08/07 12:48:51;;;;;;;4.78;1.10;;;25.10;99.90;;;;;;5199432;28;20246;-60
2022/08/07 12:51:31;;;;;;;0.90;0.90;;;25.10;99.90;;;;;;5236444;28;20029;-60
2022/08/07 12:54:22;;;;;;;1.13;1.00;;;25.20;99.90;;;;;;5216780;28;20035;-61
2022/08/07 12:56:57;;;;;;;1.48;1.02;;;25.60;99.90;;;;;;5221009;28;20187;-60
2022/08/07 12:59:32;;;;;;;1.85;1.20;;;25.90;99.90;;;;;;5202834;28;20037;-60
2022/08/07 13:02:23;;;;;;;1.02;0.93;;;26.10;99.90;;;;;;5217325;28;20055;-60
2022/08/07 13:05:13;;;;;;;1.90;1.20;;;26.30;99.90;;;;;;5219053;28;20055;-60
2022/08/07 13:08:02;;;;;;;1.20;0.93;;;26.70;99.90;;;;;;5218718;28;20295;-61
2022/08/07 13:11:01;;;;;;;0.80;0.80;;;26.50;99.90;;;;;;5207104;28;20326;-60
2022/08/07 13:13:45;;;;;;;1.00;0.90;;;26.20;99.90;;;;;;5224960;28;20029;-60
2022/08/07 13:16:16;;;;;;;1.02;0.95;;;26.80;99.90;;;;;;5238948;28;20294;-60
2022/08/07 13:19:19;;;;;;;1.17;1.10;;;28.10;99.90;;;;;;5239448;28;20044;-60
2022/08/07 13:22:16;;;;;;;1.02;0.93;;;27.90;99.90;;;;;;5238373;28;20025;-60
2022/08/07 13:24:54;;;;;;;0.88;0.88;;;28.70;99.90;;;;;;5222290;28;20033;-61
2022/08/07 13:27:38;;;;;;;1.35;1.20;;;28.80;99.90;;;;;;5220547;28;20043;-62
2022/08/07 13:30:14;;;;;;;1.10;1.00;;;28.60;99.90;;;;;;5219654;28;20206;-62
2022/08/07 13:33:03;;;;;;;0.88;0.80;;;27.90;99.90;;;;;;5236831;28;20567;-61
2022/08/07 13:35:42;;;;;;;0.90;0.90;;;27.90;99.90;;;;;;5238505;28;20290;-61
2022/08/07 13:38:20;;;;;;;1.15;1.08;;;28.50;99.90;;;;;;5220470;28;20017;-62
2022/08/07 13:41:09;;;;;;;0.95;0.85;;;29.30;99.90;;;;;;5237630;28;20043;-62
2022/08/07 13:43:43;;;;;;;2.72;1.23;;;30.00;99.90;;;;;;5220088;28;20029;-61
2022/08/07 13:46:15;;;;;;;1.00;0.85;;;30.00;99.90;;;;;;5238434;28;20039;-62
2022/08/07 13:48:51;;;;;;;0.82;0.82;;;29.60;99.90;;;;;;5219677;28;20033;-61
2022/08/07 13:51:25;;;;;;;1.10;1.00;;;29.40;99.90;;;;;;5217773;28;20230;-61
2022/08/07 13:54:03;;;;;;;1.02;0.88;;;28.80;99.90;;;;;;5214338;28;20311;-61
2022/08/07 13:56:38;;;;;;;1.95;0.80;;;28.10;99.90;;;;;;5207124;28;20021;-60
2022/08/07 13:59:14;;;;;;;1.55;0.90;;;28.00;99.90;;;;;;5198676;28;20045;-61
2022/08/07 14:02:08;;;;;;;1.17;1.05;;;29.40;99.90;;;;;;5217492;28;20021;-60
2022/08/07 14:04:58;;;;;;;0.90;0.90;;;30.50;99.90;;;;;;5230396;28;20334;-61
2022/08/07 14:07:55;;;;;;;1.00;1.00;;;29.20;99.90;;;;;;5204048;28;20025;-61